sensor_id;sensor_type;location;lat;lon;timestamp;pressure;altitude;pressure_sealevel;temperature;humidity
46598;BME280;32318;48.858;8.252;2023-02-04T00:07:52;101752.97;;;7.09;87.17
46598;BME280;32318;48.858;8.252;2023-02-04T00:15:52;101742.03;;;7.14;87.45
46598;BME280;32318;48.858;8.252;2023-02-04T00:23:53;101744.56;;;7.15;86.92
46598;BME280;32318;48.858;8.252;2023-02-04T00:31:54;101757.22;;;7.12;87.12
46598;BME280;32318;48.858;8.252;2023-02-04T00:39:55;101759.34;;;7.06;87.23
46598;BME280;32318;48.858;8.252;2023-02-04T00:47:55;101766.47;;;7.06;87.42
46598;BME280;32318;48.858;8.252;2023-02-04T00:55:56;101756.69;;;7.06;87.47
46598;BME280;32318;48.858;8.252;2023-02-04T01:03:56;101754.97;;;7.05;87.51
46598;BME280;32318;48.858;8.252;2023-02-04T01:11:56;101753.06;;;7.07;87.57
46598;BME280;32318;48.858;8.252;2023-02-04T01:19:57;101769.84;;;7.08;87.22
46598;BME280;32318;48.858;8.252;2023-02-04T01:27:57;101759.22;;;7.08;87.46
46598;BME280;32318;48.858;8.252;2023-02-04T01:35:57;101772.63;;;7.06;87.78
46598;BME280;32318;48.858;8.252;2023-02-04T01:43:58;101762.41;;;7.00;88.78
46598;BME280;32318;48.858;8.252;2023-02-04T01:51:58;101757.41;;;6.96;89.05
46598;BME280;32318;48.858;8.252;2023-02-04T01:59:59;101764.28;;;6.85;89.75
46598;BME280;32318;48.858;8.252;2023-02-04T02:08:01;101757.06;;;6.87;89.34
46598;BME280;32318;48.858;8.252;2023-02-04T02:16:02;101758.78;;;6.88;89.03
46598;BME280;32318;48.858;8.252;2023-02-04T02:24:23;101757.91;;;6.88;89.42
46598;BME280;32318;48.858;8.252;2023-02-04T02:32:24;101770.03;;;6.92;88.54
46598;BME280;32318;48.858;8.252;2023-02-04T02:40:24;101768.34;;;6.91;88.98
46598;BME280;32318;48.858;8.252;2023-02-04T02:48:25;101772.78;;;6.90;89.23
46598;BME280;32318;48.858;8.252;2023-02-04T02:56:25;101771.75;;;6.93;89.06
46598;BME280;32318;48.858;8.252;2023-02-04T03:04:28;101775.34;;;6.92;89.34
46598;BME280;32318;48.858;8.252;2023-02-04T03:12:29;101779.38;;;6.85;90.46
46598;BME280;32318;48.858;8.252;2023-02-04T03:20:31;101804.22;;;6.84;90.57
46598;BME280;32318;48.858;8.252;2023-02-04T03:28:32;101834.19;;;6.99;87.91
46598;BME280;32318;48.858;8.252;2023-02-04T03:36:33;101834.50;;;6.94;89.43
46598;BME280;32318;48.858;8.252;2023-02-04T03:44:33;101848.28;;;6.86;90.01
46598;BME280;32318;48.858;8.252;2023-02-04T03:52:34;101845.81;;;6.83;91.77
46598;BME280;32318;48.858;8.252;2023-02-04T04:00:34;101848.84;;;6.91;91.83
46598;BME280;32318;48.858;8.252;2023-02-04T04:08:35;101875.00;;;6.98;91.74
46598;BME280;32318;48.858;8.252;2023-02-04T04:16:35;101872.25;;;6.99;91.94
46598;BME280;32318;48.858;8.252;2023-02-04T04:24:36;101870.53;;;6.98;91.98
46598;BME280;32318;48.858;8.252;2023-02-04T04:32:36;101872.25;;;6.99;91.12
46598;BME280;32318;48.858;8.252;2023-02-04T04:40:36;101880.84;;;7.03;89.49
46598;BME280;32318;48.858;8.252;2023-02-04T04:48:37;101888.78;;;6.90;90.30
46598;BME280;32318;48.858;8.252;2023-02-04T04:56:37;101905.53;;;6.90;90.72
46598;BME280;32318;48.858;8.252;2023-02-04T05:04:37;101898.22;;;6.94;90.09
46598;BME280;32318;48.858;8.252;2023-02-04T05:12:38;101902.81;;;6.92;90.24
46598;BME280;32318;48.858;8.252;2023-02-04T05:20:38;101900.53;;;6.86;91.41
46598;BME280;32318;48.858;8.252;2023-02-04T05:28:38;101906.59;;;6.88;91.60
46598;BME280;32318;48.858;8.252;2023-02-04T05:36:38;101905.66;;;6.89;92.56
46598;BME280;32318;48.858;8.252;2023-02-04T05:44:39;101918.94;;;6.89;93.01
46598;BME280;32318;48.858;8.252;2023-02-04T05:52:39;101917.03;;;6.91;92.47
46598;BME280;32318;48.858;8.252;2023-02-04T06:00:40;101906.50;;;6.89;92.26
46598;BME280;32318;48.858;8.252;2023-02-04T06:08:40;101916.56;;;6.84;92.44
46598;BME280;32318;48.858;8.252;2023-02-04T06:16:40;101940.34;;;6.86;92.42
46598;BME280;32318;48.858;8.252;2023-02-04T06:24:40;101950.13;;;6.85;92.25
46598;BME280;32318;48.858;8.252;2023-02-04T06:32:41;101974.97;;;6.84;91.94
46598;BME280;32318;48.858;8.252;2023-02-04T06:40:41;101979.44;;;6.84;91.27
46598;BME280;32318;48.858;8.252;2023-02-04T06:48:42;101978.78;;;6.80;91.55
46598;BME280;32318;48.858;8.252;2023-02-04T06:56:42;101989.19;;;6.83;91.64
46598;BME280;32318;48.858;8.252;2023-02-04T07:04:42;101990.34;;;6.79;91.34
46598;BME280;32318;48.858;8.252;2023-02-04T07:12:43;102009.94;;;6.77;90.53
46598;BME280;32318;48.858;8.252;2023-02-04T07:20:43;101996.22;;;6.70;91.33
46598;BME280;32318;48.858;8.252;2023-02-04T07:28:43;102017.34;;;6.71;91.53
46598;BME280;32318;48.858;8.252;2023-02-04T07:36:44;102030.63;;;6.71;90.90
46598;BME280;32318;48.858;8.252;2023-02-04T07:44:44;102034.22;;;6.70;91.35
46598;BME280;32318;48.858;8.252;2023-02-04T07:52:44;102053.41;;;6.75;91.10
46598;BME280;32318;48.858;8.252;2023-02-04T08:00:44;102076.91;;;6.82;90.90
46598;BME280;32318;48.858;8.252;2023-02-04T08:08:45;102087.25;;;6.86;90.48
46598;BME280;32318;48.858;8.252;2023-02-04T08:16:45;102097.19;;;6.97;89.82
46598;BME280;32318;48.858;8.252;2023-02-04T08:24:45;102110.09;;;7.03;89.26
46598;BME280;32318;48.858;8.252;2023-02-04T08:32:45;102096.63;;;7.06;89.66
46598;BME280;32318;48.858;8.252;2023-02-04T08:40:46;102114.75;;;7.14;89.13
46598;BME280;32318;48.858;8.252;2023-02-04T08:48:46;102115.78;;;7.26;88.80
46598;BME280;32318;48.858;8.252;2023-02-04T08:56:46;102130.00;;;7.40;89.20
46598;BME280;32318;48.858;8.252;2023-02-04T09:04:46;102133.78;;;7.50;88.76
46598;BME280;32318;48.858;8.252;2023-02-04T09:12:47;102132.81;;;7.65;88.05
46598;BME280;32318;48.858;8.252;2023-02-04T09:20:48;102148.38;;;7.72;86.76
46598;BME280;32318;48.858;8.252;2023-02-04T09:28:48;102152.72;;;7.73;85.75
46598;BME280;32318;48.858;8.252;2023-02-04T09:36:49;102148.19;;;7.75;84.76
46598;BME280;32318;48.858;8.252;2023-02-04T09:44:49;102160.53;;;7.76;84.44
46598;BME280;32318;48.858;8.252;2023-02-04T09:52:51;102157.88;;;7.76;81.81
46598;BME280;32318;48.858;8.252;2023-02-04T10:01:07;102156.16;;;7.75;81.32
46598;BME280;32318;48.858;8.252;2023-02-04T10:09:10;102171.63;;;7.68;80.45
46598;BME280;32318;48.858;8.252;2023-02-04T10:17:14;102158.03;;;7.73;80.37
46598;BME280;32318;48.858;8.252;2023-02-04T10:25:19;102168.50;;;7.76;80.27
46598;BME280;32318;48.858;8.252;2023-02-04T10:33:22;102168.50;;;7.76;78.68
46598;BME280;32318;48.858;8.252;2023-02-04T10:41:26;102185.16;;;7.65;79.85
46598;BME280;32318;48.858;8.252;2023-02-04T10:49:26;102173.66;;;7.50;80.38
46598;BME280;32318;48.858;8.252;2023-02-04T10:57:28;102175.84;;;7.43;79.89
46598;BME280;32318;48.858;8.252;2023-02-04T11:05:31;102177.75;;;7.41;79.70
46598;BME280;32318;48.858;8.252;2023-02-04T11:13:43;102169.28;;;7.49;79.74
46598;BME280;32318;48.858;8.252;2023-02-04T11:21:45;102171.56;;;7.69;79.37
46598;BME280;32318;48.858;8.252;2023-02-04T11:29:45;102178.66;;;7.83;76.37
46598;BME280;32318;48.858;8.252;2023-02-04T11:37:46;102172.28;;;7.86;75.22
46598;BME280;32318;48.858;8.252;2023-02-04T11:45:59;102171.69;;;7.95;74.80
46598;BME280;32318;48.858;8.252;2023-02-04T11:54:01;102165.34;;;7.83;74.58
46598;BME280;32318;48.858;8.252;2023-02-04T12:02:22;102167.03;;;7.99;73.93
46598;BME280;32318;48.858;8.252;2023-02-04T12:10:24;102164.72;;;8.07;73.53
46598;BME280;32318;48.858;8.252;2023-02-04T12:18:25;102153.16;;;8.21;72.31
46598;BME280;32318;48.858;8.252;2023-02-04T12:26:26;102163.22;;;8.30;72.23
46598;BME280;32318;48.858;8.252;2023-02-04T12:34:27;102155.41;;;8.27;71.49
46598;BME280;32318;48.858;8.252;2023-02-04T12:42:27;102164.91;;;8.31;71.76
46598;BME280;32318;48.858;8.252;2023-02-04T12:50:28;102166.22;;;8.39;70.66
46598;BME280;32318;48.858;8.252;2023-02-04T12:58:28;102168.72;;;8.27;69.03
46598;BME280;32318;48.858;8.252;2023-02-04T13:06:28;102177.47;;;8.29;69.44
46598;BME280;32318;48.858;8.252;2023-02-04T13:14:29;102173.63;;;8.33;68.70
46598;BME280;32318;48.858;8.252;2023-02-04T13:22:31;102164.56;;;8.23;69.32
46598;BME280;32318;48.858;8.252;2023-02-04T13:30:32;102171.53;;;8.39;67.61
46598;BME280;32318;48.858;8.252;2023-02-04T13:38:32;102171.31;;;8.42;67.13
46598;BME280;32318;48.858;8.252;2023-02-04T13:46:32;102174.56;;;8.47;66.55
46598;BME280;32318;48.858;8.252;2023-02-04T13:54:32;102174.78;;;8.57;64.49
46598;BME280;32318;48.858;8.252;2023-02-04T14:02:33;102166.00;;;8.69;63.64
46598;BME280;32318;48.858;8.252;2023-02-04T14:10:33;102177.41;;;8.71;64.16
46598;BME280;32318;48.858;8.252;2023-02-04T14:18:34;102187.16;;;8.58;65.28
46598;BME280;32318;48.858;8.252;2023-02-04T14:26:34;102186.75;;;8.37;66.66
46598;BME280;32318;48.858;8.252;2023-02-04T14:34:34;102193.63;;;8.26;66.81
46598;BME280;32318;48.858;8.252;2023-02-04T14:42:35;102201.41;;;8.29;68.20
46598;BME280;32318;48.858;8.252;2023-02-04T14:50:37;102199.28;;;8.35;67.09
46598;BME280;32318;48.858;8.252;2023-02-04T14:58:37;102202.13;;;8.19;67.43
46598;BME280;32318;48.858;8.252;2023-02-04T15:06:38;102194.75;;;8.09;67.35
46598;BME280;32318;48.858;8.252;2023-02-04T15:14:38;102186.06;;;8.20;67.95
46598;BME280;32318;48.858;8.252;2023-02-04T15:22:39;102183.53;;;8.31;67.23
46598;BME280;32318;48.858;8.252;2023-02-04T15:30:40;102190.66;;;8.31;66.20
46598;BME280;32318;48.858;8.252;2023-02-04T15:38:40;102188.53;;;8.23;66.42
46598;BME280;32318;48.858;8.252;2023-02-04T15:46:40;102194.38;;;8.28;63.55
46598;BME280;32318;48.858;8.252;2023-02-04T15:54:40;102198.59;;;8.18;63.19
46598;BME280;32318;48.858;8.252;2023-02-04T16:02:41;102203.31;;;8.00;63.20
46598;BME280;32318;48.858;8.252;2023-02-04T16:10:41;102221.50;;;7.79;64.37
46598;BME280;32318;48.858;8.252;2023-02-04T16:18:41;102231.97;;;7.53;65.10
46598;BME280;32318;48.858;8.252;2023-02-04T16:26:41;102237.34;;;7.37;67.96
46598;BME280;32318;48.858;8.252;2023-02-04T16:34:42;102241.78;;;7.22;68.90
46598;BME280;32318;48.858;8.252;2023-02-04T16:42:42;102266.44;;;7.10;70.59
46598;BME280;32318;48.858;8.252;2023-02-04T16:50:43;102254.88;;;6.80;70.36
46598;BME280;32318;48.858;8.252;2023-02-04T16:58:43;102259.28;;;6.65;72.56
46598;BME280;32318;48.858;8.252;2023-02-04T17:06:44;102273.09;;;6.56;73.53
46598;BME280;32318;48.858;8.252;2023-02-04T17:14:44;102281.56;;;6.47;75.34
46598;BME280;32318;48.858;8.252;2023-02-04T17:22:44;102284.47;;;6.26;75.61
46598;BME280;32318;48.858;8.252;2023-02-04T17:30:44;102274.13;;;6.05;77.09
46598;BME280;32318;48.858;8.252;2023-02-04T17:38:45;102285.97;;;5.98;78.20
46598;BME280;32318;48.858;8.252;2023-02-04T17:46:45;102294.75;;;5.82;78.39
46598;BME280;32318;48.858;8.252;2023-02-04T17:54:45;102301.56;;;5.71;78.76
46598;BME280;32318;48.858;8.252;2023-02-04T18:02:47;102295.81;;;5.62;79.60
46598;BME280;32318;48.858;8.252;2023-02-04T18:10:50;102290.75;;;5.58;79.67
46598;BME280;32318;48.858;8.252;2023-02-04T18:18:53;102296.97;;;5.57;80.55
46598;BME280;32318;48.858;8.252;2023-02-04T18:26:55;102292.94;;;5.49;80.17
46598;BME280;32318;48.858;8.252;2023-02-04T18:34:58;102285.41;;;5.42;80.54
46598;BME280;32318;48.858;8.252;2023-02-04T18:43:17;102296.53;;;5.31;80.07
46598;BME280;32318;48.858;8.252;2023-02-04T18:51:41;102298.81;;;5.21;80.58
46598;BME280;32318;48.858;8.252;2023-02-04T18:59:43;102308.00;;;5.14;80.35
46598;BME280;32318;48.858;8.252;2023-02-04T19:07:43;102304.81;;;5.07;80.80
46598;BME280;32318;48.858;8.252;2023-02-04T19:15:50;102311.97;;;5.05;80.65
46598;BME280;32318;48.858;8.252;2023-02-04T19:23:58;102302.75;;;4.95;80.25
46598;BME280;32318;48.858;8.252;2023-02-04T19:32:28;102309.84;;;4.94;80.85
46598;BME280;32318;48.858;8.252;2023-02-04T19:40:30;102314.53;;;4.89;80.71
46598;BME280;32318;48.858;8.252;2023-02-04T19:48:34;102328.69;;;4.88;80.91
46598;BME280;32318;48.858;8.252;2023-02-04T19:56:37;102329.72;;;4.85;80.55
46598;BME280;32318;48.858;8.252;2023-02-04T20:04:43;102333.13;;;4.87;80.49
46598;BME280;32318;48.858;8.252;2023-02-04T20:12:44;102332.41;;;4.84;81.18
46598;BME280;32318;48.858;8.252;2023-02-04T20:20:45;102318.09;;;4.88;79.99
46598;BME280;32318;48.858;8.252;2023-02-04T20:28:46;102334.13;;;4.85;79.64
46598;BME280;32318;48.858;8.252;2023-02-04T20:36:49;102328.13;;;4.81;78.52
46598;BME280;32318;48.858;8.252;2023-02-04T20:44:51;102340.16;;;4.69;78.85
46598;BME280;32318;48.858;8.252;2023-02-04T21:00:53;102360.63;;;4.66;79.54
46598;BME280;32318;48.858;8.252;2023-02-04T21:08:56;102363.06;;;4.70;79.91
46598;BME280;32318;48.858;8.252;2023-02-04T21:16:57;102370.91;;;4.72;79.59
46598;BME280;32318;48.858;8.252;2023-02-04T21:24:57;102367.47;;;4.70;79.54
46598;BME280;32318;48.858;8.252;2023-02-04T21:32:58;102369.19;;;4.71;79.97
46598;BME280;32318;48.858;8.252;2023-02-04T21:40:59;102376.22;;;4.72;78.82
46598;BME280;32318;48.858;8.252;2023-02-04T21:48:59;102370.56;;;4.61;79.21
46598;BME280;32318;48.858;8.252;2023-02-04T21:57:00;102374.06;;;4.61;78.71
46598;BME280;32318;48.858;8.252;2023-02-04T22:05:04;102370.63;;;4.59;78.95
46598;BME280;32318;48.858;8.252;2023-02-04T22:13:06;102373.06;;;4.64;78.84
46598;BME280;32318;48.858;8.252;2023-02-04T22:21:06;102359.00;;;4.63;80.09
46598;BME280;32318;48.858;8.252;2023-02-04T22:29:07;102358.84;;;4.66;79.91
46598;BME280;32318;48.858;8.252;2023-02-04T22:37:07;102352.69;;;4.66;79.78
46598;BME280;32318;48.858;8.252;2023-02-04T22:45:08;102352.69;;;4.66;79.61
46598;BME280;32318;48.858;8.252;2023-02-04T22:53:09;102368.84;;;4.60;80.53
46598;BME280;32318;48.858;8.252;2023-02-04T23:01:09;102359.47;;;4.52;80.02
46598;BME280;32318;48.858;8.252;2023-02-04T23:09:09;102350.78;;;4.50;80.11
46598;BME280;32318;48.858;8.252;2023-02-04T23:17:10;102361.09;;;4.37;79.72
46598;BME280;32318;48.858;8.252;2023-02-04T23:25:11;102377.06;;;4.34;80.42
46598;BME280;32318;48.858;8.252;2023-02-04T23:33:11;102368.72;;;4.24;80.33
46598;BME280;32318;48.858;8.252;2023-02-04T23:41:11;102362.63;;;4.22;80.44
46598;BME280;32318;48.858;8.252;2023-02-04T23:49:12;102366.00;;;4.26;80.44
46598;BME280;32318;48.858;8.252;2023-02-04T23:57:12;102366.63;;;4.31;81.31
